Time;durP1;ratioP1;P1;durP2;ratioP2;P2;SDS_P1;SDS_P2;PMS_P1;PMS_P2;Temp;Humidity;BMP_temperature;BMP_pressure;BME280_temperature;BME280_humidity;BME280_pressure;Samples;Min_cycle;Max_cycle;Signal;HPM_P1;HPM_P2
2022/07/31 00:00:39;;;;;;;5.40;0.95;;;19.00;99.90;;;;;;5045954;28;20056;-74
2022/07/31 00:03:06;;;;;;;4.40;1.10;;;19.00;99.90;;;;;;5039764;28;20037;-75
2022/07/31 00:05:32;;;;;;;5.60;1.35;;;19.00;99.90;;;;;;5038945;28;20053;-75
2022/07/31 00:07:58;;;;;;;8.65;1.55;;;19.00;99.90;;;;;;5039005;28;20030;-74
2022/07/31 00:10:24;;;;;;;3.17;1.08;;;18.90;99.90;;;;;;5042649;28;20041;-74
2022/07/31 00:12:50;;;;;;;4.10;1.48;;;19.00;99.90;;;;;;5042425;28;20038;-74
2022/07/31 00:15:16;;;;;;;3.05;1.20;;;18.90;99.90;;;;;;5041733;28;20044;-75
2022/07/31 00:17:43;;;;;;;3.88;0.95;;;18.90;99.90;;;;;;5042105;28;20064;-75
2022/07/31 00:20:14;;;;;;;4.40;0.90;;;18.90;99.90;;;;;;5024501;28;20526;-75
2022/07/31 00:22:45;;;;;;;3.22;1.02;;;18.90;99.90;;;;;;5024148;28;20128;-75
2022/07/31 00:25:11;;;;;;;2.47;1.20;;;18.90;99.90;;;;;;5042309;28;20064;-75
2022/07/31 00:27:38;;;;;;;3.15;1.02;;;18.80;99.90;;;;;;5025147;28;20037;-75
2022/07/31 00:30:04;;;;;;;5.45;1.08;;;18.90;99.90;;;;;;5041701;28;20045;-74
2022/07/31 00:32:30;;;;;;;2.90;1.25;;;18.80;99.90;;;;;;5024787;28;20080;-75
2022/07/31 00:34:56;;;;;;;2.03;0.95;;;18.90;99.90;;;;;;5042172;28;20069;-74
2022/07/31 00:37:21;;;;;;;3.50;1.02;;;18.80;99.90;;;;;;5045418;28;20060;-75
2022/07/31 00:39:47;;;;;;;3.20;1.30;;;18.80;99.90;;;;;;5046052;28;20044;-80
2022/07/31 00:42:20;;;;;;;4.65;1.17;;;18.70;99.90;;;;;;5046091;28;20060;-76
2022/07/31 00:44:46;;;;;;;4.07;1.27;;;18.70;99.90;;;;;;5045957;28;20098;-77
2022/07/31 00:47:12;;;;;;;4.68;1.00;;;19.00;99.90;;;;;;5042901;28;20842;-75
2022/07/31 00:49:37;;;;;;;3.13;1.17;;;18.60;99.90;;;;;;5042446;28;20042;-79
2022/07/31 00:52:04;;;;;;;2.17;0.90;;;18.60;99.90;;;;;;5049913;28;20419;-78
2022/07/31 00:54:29;;;;;;;4.82;1.45;;;18.60;99.90;;;;;;5042722;28;20052;-76
2022/07/31 00:56:55;;;;;;;3.10;1.20;;;18.50;99.90;;;;;;5042766;28;20038;-78
2022/07/31 00:59:20;;;;;;;3.67;1.40;;;18.50;99.90;;;;;;5027479;28;20515;-79
2022/07/31 01:01:46;;;;;;;2.03;1.10;;;18.50;99.90;;;;;;5045662;28;20055;-76
2022/07/31 01:04:14;;;;;;;7.22;1.23;;;18.50;99.90;;;;;;5045006;28;20041;-77
2022/07/31 01:06:40;;;;;;;3.63;1.10;;;18.40;99.90;;;;;;5045661;28;20374;-77
2022/07/31 01:09:05;;;;;;;2.63;1.20;;;18.40;99.90;;;;;;5043368;28;20048;-75
2022/07/31 01:11:46;;;;;;;3.15;1.00;;;18.50;99.90;;;;;;5046717;28;20097;-78
2022/07/31 01:14:12;;;;;;;3.05;1.08;;;18.50;99.90;;;;;;5043001;28;20048;-76
2022/07/31 01:16:47;;;;;;;1.65;1.25;;;18.50;99.90;;;;;;5042055;28;20037;-76
2022/07/31 01:19:31;;;;;;;2.30;1.15;;;18.50;99.90;;;;;;5048939;28;20029;-75
2022/07/31 01:22:18;;;;;;;5.15;1.08;;;18.50;99.90;;;;;;5050260;28;20104;-76
2022/07/31 01:25:11;;;;;;;3.95;1.58;;;18.50;99.90;;;;;;5048953;28;20068;-75
2022/07/31 01:28:01;;;;;;;4.13;2.03;;;18.50;99.90;;;;;;5007838;28;20128;-76
2022/07/31 01:30:35;;;;;;;1.38;1.05;;;18.50;99.90;;;;;;5041931;28;20342;-75
2022/07/31 01:33:08;;;;;;;1.88;0.90;;;18.50;99.90;;;;;;5049370;28;20037;-75
2022/07/31 01:35:46;;;;;;;2.72;1.05;;;18.50;99.90;;;;;;5029250;28;20404;-76
2022/07/31 01:38:21;;;;;;;3.60;1.35;;;18.50;99.90;;;;;;5026811;28;20477;-75
2022/07/31 01:40:53;;;;;;;1.65;0.90;;;18.50;99.90;;;;;;5010218;28;20431;-77
2022/07/31 01:43:24;;;;;;;5.03;1.05;;;18.50;99.90;;;;;;5027264;28;20115;-76
2022/07/31 01:45:56;;;;;;;3.60;1.10;;;18.40;99.90;;;;;;5027068;28;20477;-76
2022/07/31 01:48:22;;;;;;;5.18;1.60;;;18.40;99.90;;;;;;5039192;28;20485;-76
2022/07/31 01:50:51;;;;;;;2.05;0.95;;;18.70;99.90;;;;;;5023504;28;20401;-77
2022/07/31 01:53:20;;;;;;;5.45;1.60;;;18.40;99.90;;;;;;5026455;28;20098;-75
2022/07/31 01:55:47;;;;;;;1.20;1.08;;;18.50;99.90;;;;;;5046560;28;20045;-77
2022/07/31 01:58:17;;;;;;;5.88;2.20;;;18.50;99.90;;;;;;5043257;28;20382;-76
2022/07/31 02:00:48;;;;;;;3.45;1.75;;;18.50;99.90;;;;;;5043954;28;20041;-74
2022/07/31 02:03:17;;;;;;;2.10;1.50;;;18.40;99.90;;;;;;5026923;28;20095;-75
2022/07/31 02:05:44;;;;;;;6.70;1.70;;;18.40;99.90;;;;;;5030165;28;20385;-75
2022/07/31 02:08:16;;;;;;;4.30;1.73;;;18.40;99.90;;;;;;5049449;28;20391;-75
2022/07/31 02:10:46;;;;;;;3.42;1.60;;;18.40;99.90;;;;;;5041446;28;20072;-75
2022/07/31 02:13:13;;;;;;;5.70;1.88;;;18.40;99.90;;;;;;5049154;28;20036;-76
2022/07/31 02:15:40;;;;;;;3.17;1.77;;;18.40;99.90;;;;;;5022369;28;20042;-75
2022/07/31 02:18:08;;;;;;;2.72;1.52;;;18.40;99.90;;;;;;5030990;28;20036;-75
2022/07/31 02:20:35;;;;;;;4.03;2.13;;;18.40;99.90;;;;;;5040954;28;20076;-75
2022/07/31 02:23:03;;;;;;;2.30;1.67;;;18.40;99.90;;;;;;5048732;28;20116;-75
2022/07/31 02:25:34;;;;;;;2.00;1.38;;;18.40;99.90;;;;;;5040785;28;20029;-78
2022/07/31 02:28:01;;;;;;;5.22;1.77;;;18.40;99.90;;;;;;5048722;28;20102;-76
2022/07/31 02:30:34;;;;;;;3.05;1.48;;;18.60;99.90;;;;;;5040013;28;20625;-75
2022/07/31 02:33:05;;;;;;;2.22;1.45;;;18.40;99.90;;;;;;5048947;28;20066;-75
2022/07/31 02:35:34;;;;;;;5.00;1.85;;;18.40;99.90;;;;;;5026911;28;20140;-74
2022/07/31 02:38:02;;;;;;;4.75;1.80;;;18.40;99.90;;;;;;5025935;28;20041;-75
2022/07/31 02:40:31;;;;;;;5.50;1.50;;;18.40;99.90;;;;;;5043955;28;20067;-76
2022/07/31 02:42:57;;;;;;;2.55;1.40;;;18.40;99.90;;;;;;5017568;28;20049;-77
2022/07/31 02:45:23;;;;;;;4.55;1.70;;;18.40;99.90;;;;;;5025946;28;20033;-77
2022/07/31 02:47:49;;;;;;;1.25;1.20;;;18.40;99.90;;;;;;5045027;28;20041;-76
2022/07/31 02:50:16;;;;;;;5.50;1.58;;;18.80;99.90;;;;;;5041685;28;20103;-76
2022/07/31 02:52:42;;;;;;;5.28;1.40;;;18.40;99.90;;;;;;5043846;28;20218;-77
2022/07/31 02:55:08;;;;;;;8.60;2.13;;;18.40;99.90;;;;;;5025686;28;20439;-77
2022/07/31 02:57:34;;;;;;;2.75;1.40;;;18.40;99.90;;;;;;5025077;28;20045;-79
2022/07/31 03:00:00;;;;;;;4.60;1.55;;;18.40;99.90;;;;;;5025469;28;20167;-79
2022/07/31 03:02:25;;;;;;;2.75;1.20;;;18.40;99.90;;;;;;5039781;28;20060;-77
2022/07/31 03:04:51;;;;;;;4.43;2.10;;;18.40;99.90;;;;;;5039860;28;20096;-77
2022/07/31 03:07:16;;;;;;;3.38;1.20;;;18.40;99.90;;;;;;5041989;28;20648;-75
2022/07/31 03:09:42;;;;;;;4.55;1.42;;;18.40;99.90;;;;;;5043495;28;20044;-76
2022/07/31 03:12:08;;;;;;;2.72;1.60;;;18.80;99.90;;;;;;5042679;28;20490;-75
2022/07/31 03:14:35;;;;;;;1.52;1.40;;;18.40;99.90;;;;;;5043105;28;20112;-74
2022/07/31 03:17:04;;;;;;;1.73;1.40;;;19.20;99.90;;;;;;5042831;28;20040;-74
2022/07/31 03:19:32;;;;;;;2.75;1.55;;;18.40;99.90;;;;;;5039139;28;20435;-76
2022/07/31 03:21:59;;;;;;;5.68;1.63;;;18.40;99.90;;;;;;5047498;28;20041;-75
2022/07/31 03:24:25;;;;;;;3.38;1.52;;;18.40;99.90;;;;;;5042963;28;20041;-74
2022/07/31 03:26:51;;;;;;;2.47;1.92;;;19.10;99.90;;;;;;5040433;28;20049;-73
2022/07/31 03:29:17;;;;;;;4.85;1.80;;;18.30;99.90;;;;;;5040742;28;20049;-74
2022/07/31 03:31:43;;;;;;;2.28;1.17;;;18.30;99.90;;;;;;5045443;28;20124;-74
2022/07/31 03:34:10;;;;;;;4.63;1.55;;;18.30;99.90;;;;;;5041671;28;20144;-75
2022/07/31 03:36:36;;;;;;;2.38;1.48;;;18.20;99.90;;;;;;5039549;28;20041;-76
2022/07/31 03:39:02;;;;;;;4.63;1.80;;;18.20;99.90;;;;;;5039004;28;20044;-73
2022/07/31 03:41:27;;;;;;;2.33;1.17;;;18.20;99.90;;;;;;5025679;28;20106;-76
2022/07/31 03:43:53;;;;;;;6.57;1.80;;;18.10;99.90;;;;;;5045230;28;20048;-74
2022/07/31 03:46:21;;;;;;;3.38;1.85;;;18.10;99.90;;;;;;5041170;28;20049;-76
2022/07/31 03:48:47;;;;;;;8.60;2.40;;;18.00;99.90;;;;;;5043257;28;20041;-73
2022/07/31 03:51:17;;;;;;;2.30;2.00;;;18.10;99.90;;;;;;5042622;28;20040;-74
2022/07/31 03:53:43;;;;;;;4.10;2.40;;;18.00;99.90;;;;;;5038834;28;20049;-74
2022/07/31 03:56:10;;;;;;;3.25;1.70;;;18.00;99.90;;;;;;5040063;28;20029;-74
2022/07/31 03:58:36;;;;;;;3.03;2.03;;;17.90;99.90;;;;;;5042391;28;20051;-77
2022/07/31 04:01:02;;;;;;;2.60;2.13;;;18.50;99.90;;;;;;5021151;28;20507;-76
2022/07/31 04:03:33;;;;;;;6.50;2.20;;;18.00;99.90;;;;;;5022908;28;20048;-76
2022/07/31 04:05:59;;;;;;;7.43;2.25;;;17.90;99.90;;;;;;5022148;28;20040;-75
2022/07/31 04:08:24;;;;;;;3.03;2.53;;;17.90;99.90;;;;;;5018413;28;20053;-77
2022/07/31 04:10:50;;;;;;;3.42;2.60;;;17.90;99.90;;;;;;5021356;28;20077;-76
2022/07/31 04:13:16;;;;;;;2.35;1.70;;;17.90;99.90;;;;;;5025229;28;20037;-76
2022/07/31 04:15:42;;;;;;;3.53;2.20;;;18.00;99.90;;;;;;5026679;28;20073;-78
2022/07/31 04:18:07;;;;;;;2.92;1.98;;;18.00;99.90;;;;;;5026867;28;20077;-78
2022/07/31 04:20:33;;;;;;;2.80;2.10;;;18.00;99.90;;;;;;5026433;28;20068;-78
2022/07/31 04:22:59;;;;;;;3.58;1.80;;;18.20;99.90;;;;;;5026604;28;20485;-76
2022/07/31 04:25:24;;;;;;;4.97;2.13;;;18.00;99.90;;;;;;5024752;28;20041;-77
2022/07/31 04:27:51;;;;;;;6.55;2.55;;;18.00;99.90;;;;;;5023506;28;20624;-76
2022/07/31 04:30:19;;;;;;;4.20;2.30;;;18.00;99.90;;;;;;5024196;28;20053;-76
2022/07/31 04:32:48;;;;;;;4.82;2.70;;;18.00;99.90;;;;;;5027289;28;20493;-74
2022/07/31 04:35:17;;;;;;;8.48;2.53;;;18.00;99.90;;;;;;5024720;28;20046;-75
2022/07/31 04:37:43;;;;;;;7.60;2.85;;;18.00;99.90;;;;;;5021816;28;20049;-77
2022/07/31 04:40:09;;;;;;;5.00;2.50;;;18.00;99.90;;;;;;5023211;28;20034;-76
2022/07/31 04:42:35;;;;;;;3.47;2.30;;;18.00;99.90;;;;;;5022967;28;20034;-74
2022/07/31 04:45:01;;;;;;;3.97;2.30;;;18.00;99.90;;;;;;5023039;28;20474;-75
2022/07/31 04:47:27;;;;;;;4.68;2.30;;;18.00;99.90;;;;;;5023644;28;20486;-74
2022/07/31 04:49:52;;;;;;;3.90;2.58;;;18.00;99.90;;;;;;5025764;28;20044;-75
2022/07/31 04:52:21;;;;;;;4.75;2.97;;;18.00;99.90;;;;;;5025392;28;20045;-73
2022/07/31 04:54:46;;;;;;;5.90;2.70;;;18.00;99.90;;;;;;5022922;28;20045;-74
2022/07/31 04:57:12;;;;;;;3.72;2.67;;;18.00;99.90;;;;;;5022321;28;20041;-76
2022/07/31 04:59:38;;;;;;;3.88;2.70;;;18.00;99.90;;;;;;5025913;28;20045;-75
2022/07/31 05:02:03;;;;;;;4.07;2.95;;;18.20;99.90;;;;;;5039038;28;20144;-76
2022/07/31 05:04:29;;;;;;;8.27;3.53;;;18.40;99.90;;;;;;5027430;28;20046;-74
2022/07/31 05:06:55;;;;;;;6.05;2.63;;;18.00;99.90;;;;;;5030371;28;20048;-75
2022/07/31 05:09:22;;;;;;;3.15;2.75;;;18.10;99.90;;;;;;5050768;28;20045;-74
2022/07/31 05:11:52;;;;;;;6.20;2.65;;;18.00;99.90;;;;;;5030094;28;20424;-75
2022/07/31 05:14:19;;;;;;;3.80;2.72;;;18.00;99.90;;;;;;5045521;28;20053;-75
2022/07/31 05:16:45;;;;;;;4.72;2.80;;;18.30;99.90;;;;;;5042425;28;20041;-74
2022/07/31 05:19:12;;;;;;;4.35;2.83;;;18.00;99.90;;;;;;5050212;28;20116;-75
2022/07/31 05:21:37;;;;;;;6.85;3.15;;;18.30;99.90;;;;;;5042008;28;20041;-76
2022/07/31 05:24:03;;;;;;;2.92;2.72;;;18.10;99.90;;;;;;5042147;28;20048;-76
2022/07/31 05:26:29;;;;;;;5.78;2.60;;;18.10;99.90;;;;;;5043245;28;20041;-75
2022/07/31 05:28:57;;;;;;;5.25;3.15;;;18.10;99.90;;;;;;5045575;28;20044;-76
2022/07/31 05:31:23;;;;;;;4.07;2.53;;;18.30;99.90;;;;;;5026964;28;20103;-76
2022/07/31 05:33:50;;;;;;;4.47;2.38;;;18.20;99.90;;;;;;5027943;28;20036;-74
2022/07/31 05:36:17;;;;;;;5.07;2.50;;;18.80;99.90;;;;;;5045308;28;20060;-77
2022/07/31 05:38:43;;;;;;;3.33;2.85;;;18.20;99.90;;;;;;5044193;28;20453;-74
2022/07/31 05:41:09;;;;;;;3.13;2.90;;;18.30;99.90;;;;;;5045561;28;20040;-74
2022/07/31 05:43:36;;;;;;;3.22;2.85;;;18.20;99.90;;;;;;5042322;28;20041;-75
2022/07/31 05:46:02;;;;;;;3.97;3.00;;;18.20;99.90;;;;;;5041080;28;20031;-74
2022/07/31 05:48:27;;;;;;;4.78;2.50;;;18.20;99.90;;;;;;5008824;28;20045;-75
2022/07/31 05:50:53;;;;;;;3.35;3.05;;;18.20;99.90;;;;;;5048267;28;20037;-74
2022/07/31 05:53:19;;;;;;;5.45;2.80;;;18.30;99.90;;;;;;5041415;28;20045;-75
2022/07/31 05:55:47;;;;;;;4.07;2.58;;;18.30;99.90;;;;;;5044852;28;20041;-75
2022/07/31 05:58:14;;;;;;;3.83;2.70;;;18.30;99.90;;;;;;5026755;28;20576;-74
2022/07/31 06:00:45;;;;;;;4.95;3.28;;;18.30;99.90;;;;;;5027529;28;20033;-75
2022/07/31 06:03:12;;;;;;;2.92;2.60;;;18.30;99.90;;;;;;5045266;28;20530;-74
2022/07/31 06:05:38;;;;;;;5.57;3.13;;;18.70;99.90;;;;;;5026746;28;20424;-77
2022/07/31 06:08:04;;;;;;;3.83;2.85;;;19.00;99.90;;;;;;5043742;28;20048;-77
2022/07/31 06:10:30;;;;;;;8.63;3.03;;;18.40;99.90;;;;;;5042925;28;20064;-75
2022/07/31 06:12:56;;;;;;;4.93;3.33;;;18.40;99.90;;;;;;5028906;28;20492;-73
2022/07/31 06:15:24;;;;;;;5.00;2.92;;;18.50;99.90;;;;;;5043430;28;20076;-75
2022/07/31 06:17:50;;;;;;;5.00;3.40;;;18.50;99.90;;;;;;5037257;28;20112;-76
2022/07/31 06:20:15;;;;;;;7.97;3.83;;;18.50;99.90;;;;;;5044594;28;20200;-76
2022/07/31 06:22:42;;;;;;;5.50;2.80;;;18.50;99.90;;;;;;5044178;28;20037;-74
2022/07/31 06:25:09;;;;;;;8.27;3.20;;;18.60;99.90;;;;;;5044520;28;20056;-75
2022/07/31 06:27:35;;;;;;;5.95;3.13;;;18.60;99.90;;;;;;5041881;28;20052;-75
2022/07/31 06:30:04;;;;;;;8.38;3.58;;;18.90;99.90;;;;;;5040328;28;20117;-74
2022/07/31 06:32:34;;;;;;;5.05;3.10;;;18.40;99.90;;;;;;5049124;28;20033;-78
2022/07/31 06:34:59;;;;;;;3.58;3.25;;;18.70;99.90;;;;;;5040200;28;20084;-76
2022/07/31 06:37:25;;;;;;;4.13;3.63;;;18.70;99.90;;;;;;5007066;28;20088;-80
2022/07/31 06:39:52;;;;;;;6.28;3.60;;;19.40;99.90;;;;;;5030795;28;20481;-73
2022/07/31 06:42:19;;;;;;;3.30;3.00;;;18.80;99.90;;;;;;5040293;28;20048;-75
2022/07/31 06:44:44;;;;;;;4.97;3.72;;;18.80;99.90;;;;;;5050451;28;20473;-76
2022/07/31 06:47:10;;;;;;;4.57;3.00;;;18.90;99.90;;;;;;5040701;28;20045;-76
2022/07/31 06:49:36;;;;;;;9.95;8.20;;;18.80;99.90;;;;;;5042333;28;20053;-75
2022/07/31 06:52:01;;;;;;;7.07;4.00;;;18.90;99.90;;;;;;5026412;28;20033;-76
2022/07/31 06:54:27;;;;;;;8.45;4.03;;;18.90;99.90;;;;;;5043274;28;20041;-75
2022/07/31 06:56:52;;;;;;;5.30;3.28;;;18.90;99.90;;;;;;5040150;28;20041;-74
2022/07/31 06:59:18;;;;;;;3.85;3.22;;;19.00;99.90;;;;;;5041452;28;20120;-74
2022/07/31 07:01:47;;;;;;;6.18;3.17;;;19.00;99.90;;;;;;5043223;28;20053;-74
2022/07/31 07:04:13;;;;;;;6.78;3.47;;;19.00;99.90;;;;;;5044657;28;20054;-74
2022/07/31 07:06:38;;;;;;;9.15;3.95;;;19.00;99.90;;;;;;5042303;28;20588;-76
2022/07/31 07:09:04;;;;;;;6.35;3.80;;;19.00;99.90;;;;;;5043504;28;20400;-76
2022/07/31 07:11:30;;;;;;;6.22;3.55;;;19.30;99.90;;;;;;5025357;28;20049;-74
2022/07/31 07:13:59;;;;;;;8.57;3.70;;;19.10;99.90;;;;;;5043860;28;20051;-74
2022/07/31 07:16:24;;;;;;;7.18;3.72;;;19.10;99.90;;;;;;5043475;28;20040;-74
2022/07/31 07:18:50;;;;;;;5.00;3.53;;;19.00;99.90;;;;;;5039641;28;20034;-75
2022/07/31 07:21:16;;;;;;;4.32;3.83;;;19.10;99.90;;;;;;5047286;28;20484;-75
2022/07/31 07:23:41;;;;;;;5.68;4.65;;;19.20;99.90;;;;;;5041046;28;20037;-75
2022/07/31 07:26:10;;;;;;;7.03;3.45;;;19.20;99.90;;;;;;5039621;28;20116;-74
2022/07/31 07:28:36;;;;;;;4.63;3.70;;;19.20;99.90;;;;;;5042408;28;20045;-74
2022/07/31 07:31:03;;;;;;;8.00;4.65;;;19.30;99.90;;;;;;5023411;28;20044;-76
2022/07/31 07:33:30;;;;;;;4.80;4.18;;;19.30;99.90;;;;;;5043343;28;20040;-78
2022/07/31 07:35:56;;;;;;;6.85;4.85;;;19.60;99.90;;;;;;5040394;28;20067;-75
2022/07/31 07:38:22;;;;;;;6.47;4.50;;;19.40;99.90;;;;;;5039010;28;20125;-76
2022/07/31 07:40:50;;;;;;;4.90;4.07;;;19.40;99.90;;;;;;5030078;28;20044;-75
2022/07/31 07:43:16;;;;;;;15.77;5.10;;;19.40;99.90;;;;;;5021409;28;20055;-76
2022/07/31 07:45:42;;;;;;;8.48;4.30;;;19.50;99.90;;;;;;5030459;28;20051;-76
2022/07/31 07:48:08;;;;;;;4.50;4.10;;;19.80;99.90;;;;;;5039785;28;20030;-76
2022/07/31 07:50:33;;;;;;;6.65;4.47;;;20.60;99.90;;;;;;5047467;28;20110;-77
2022/07/31 07:52:59;;;;;;;7.30;4.95;;;19.80;99.90;;;;;;5044375;28;20036;-76
2022/07/31 07:55:25;;;;;;;6.15;5.22;;;19.80;99.90;;;;;;5043205;28;20059;-75
2022/07/31 07:57:51;;;;;;;11.55;5.00;;;19.90;99.90;;;;;;5042136;28;20127;-75
2022/07/31 08:00:17;;;;;;;7.90;6.40;;;19.90;99.90;;;;;;5043055;28;20502;-75
2022/07/31 08:02:46;;;;;;;10.90;8.27;;;19.90;99.90;;;;;;5008945;28;20056;-75
2022/07/31 08:05:15;;;;;;;12.10;6.28;;;20.00;99.90;;;;;;5045731;28;20041;-80
2022/07/31 08:07:44;;;;;;;6.60;5.28;;;20.10;99.90;;;;;;5022987;28;20048;-77
2022/07/31 08:10:11;;;;;;;6.28;4.85;;;20.10;99.90;;;;;;5045771;28;20052;-75
2022/07/31 08:12:37;;;;;;;6.97;4.88;;;20.10;99.90;;;;;;5048008;28;20045;-74
2022/07/31 08:15:03;;;;;;;12.10;4.35;;;20.10;99.90;;;;;;5039401;28;20369;-75
2022/07/31 08:17:28;;;;;;;6.25;4.93;;;20.10;99.90;;;;;;5021553;28;20053;-77
2022/07/31 08:19:54;;;;;;;6.20;4.10;;;20.20;99.90;;;;;;5024053;28;20041;-75
2022/07/31 08:22:20;;;;;;;9.18;4.38;;;20.20;99.90;;;;;;5044334;28;20041;-75
2022/07/31 08:24:45;;;;;;;8.68;5.70;;;20.30;99.90;;;;;;5041566;28;20045;-74
2022/07/31 08:27:25;;;;;;;10.70;4.68;;;20.20;99.90;;;;;;5041632;28;20040;-78
2022/07/31 08:29:57;;;;;;;10.10;5.75;;;20.20;99.90;;;;;;5039837;28;20060;-78
2022/07/31 08:32:24;;;;;;;8.27;6.35;;;20.30;99.90;;;;;;5046762;28;20037;-78
2022/07/31 08:34:50;;;;;;;11.00;5.97;;;20.30;99.90;;;;;;5025359;28;20435;-77
2022/07/31 08:37:18;;;;;;;12.93;7.38;;;20.20;99.90;;;;;;5042536;28;20045;-79
2022/07/31 08:39:47;;;;;;;9.82;7.55;;;20.30;99.90;;;;;;5024313;28;20052;-78
2022/07/31 08:42:16;;;;;;;11.45;7.28;;;20.30;99.90;;;;;;5033048;28;20128;-75
2022/07/31 08:44:46;;;;;;;10.55;8.18;;;20.20;99.90;;;;;;5041563;28;20174;-75
2022/07/31 08:47:15;;;;;;;11.57;8.07;;;20.20;99.90;;;;;;5026180;28;20307;-75
2022/07/31 08:49:47;;;;;;;11.00;8.00;;;20.20;99.90;;;;;;5024169;28;20048;-74
2022/07/31 08:52:23;;;;;;;13.55;8.02;;;20.10;99.90;;;;;;5008358;28;20037;-75
2022/07/31 08:54:53;;;;;;;14.90;8.68;;;20.20;99.90;;;;;;5041694;28;20092;-73
2022/07/31 08:57:19;;;;;;;10.55;8.63;;;20.60;99.90;;;;;;5027226;28;20132;-76
2022/07/31 08:59:51;;;;;;;16.00;8.02;;;20.10;99.90;;;;;;5028417;28;20128;-77
2022/07/31 09:02:17;;;;;;;10.25;7.75;;;20.60;99.90;;;;;;5029992;28;20115;-76
2022/07/31 09:04:45;;;;;;;14.05;8.18;;;20.00;99.90;;;;;;5050819;28;20461;-75
2022/07/31 09:07:14;;;;;;;9.95;8.88;;;20.00;99.90;;;;;;5042326;28;20576;-74
2022/07/31 09:09:44;;;;;;;16.10;10.70;;;20.40;99.90;;;;;;5042244;28;20114;-76
2022/07/31 09:12:11;;;;;;;12.20;10.13;;;19.90;99.90;;;;;;5028624;28;20036;-75
2022/07/31 09:14:46;;;;;;;13.38;9.05;;;19.90;99.90;;;;;;5045954;28;20076;-76
2022/07/31 09:17:14;;;;;;;15.45;10.48;;;19.80;99.90;;;;;;5045823;28;20121;-74
2022/07/31 09:19:46;;;;;;;14.55;11.10;;;19.90;99.90;;;;;;5028202;28;20044;-76
2022/07/31 09:22:28;;;;;;;13.75;10.95;;;19.80;99.90;;;;;;5047199;28;20072;-77
2022/07/31 09:25:10;;;;;;;19.40;11.98;;;19.80;99.90;;;;;;5043705;28;20052;-75
2022/07/31 09:27:36;;;;;;;13.02;9.77;;;19.70;99.90;;;;;;5050113;28;20033;-79
2022/07/31 09:30:11;;;;;;;15.23;10.88;;;19.70;99.90;;;;;;5023457;28;20064;-76
2022/07/31 09:32:36;;;;;;;15.85;10.15;;;19.60;99.90;;;;;;5041965;28;20045;-77
2022/07/31 09:35:08;;;;;;;14.57;9.65;;;19.60;99.90;;;;;;5010684;28;20056;-77
2022/07/31 09:37:34;;;;;;;15.90;11.82;;;19.60;99.90;;;;;;5045104;28;20124;-77
2022/07/31 09:40:03;;;;;;;15.45;10.98;;;19.70;99.90;;;;;;5050615;28;20115;-76
2022/07/31 09:42:57;;;;;;;16.70;11.43;;;19.70;99.90;;;;;;5049255;28;20043;-77
2022/07/31 09:45:24;;;;;;;12.25;10.57;;;19.70;99.90;;;;;;5010293;28;20075;-78
2022/07/31 09:48:09;;;;;;;18.55;11.82;;;19.90;99.90;;;;;;5044900;28;20036;-77
2022/07/31 09:50:35;;;;;;;15.82;11.23;;;19.70;99.90;;;;;;5044443;28;20045;-76
2022/07/31 09:53:01;;;;;;;17.58;11.15;;;19.70;99.90;;;;;;5027420;28;20044;-77
2022/07/31 09:55:27;;;;;;;15.35;12.80;;;19.70;99.90;;;;;;5046818;28;20045;-76
2022/07/31 09:57:55;;;;;;;14.35;11.23;;;19.70;99.90;;;;;;5042474;28;20124;-77
2022/07/31 10:00:24;;;;;;;12.25;10.82;;;19.70;99.90;;;;;;5045563;28;20049;-76
2022/07/31 10:02:54;;;;;;;14.30;12.02;;;19.70;99.90;;;;;;5027109;28;20053;-77
2022/07/31 10:05:24;;;;;;;13.57;11.98;;;19.80;99.90;;;;;;5047385;28;20179;-78
2022/07/31 10:07:50;;;;;;;13.00;11.63;;;19.70;99.90;;;;;;5041402;28;20452;-79
2022/07/31 10:10:16;;;;;;;18.20;13.50;;;19.70;99.90;;;;;;5027096;28;20052;-77
2022/07/31 10:12:48;;;;;;;14.20;12.20;;;19.80;99.90;;;;;;5044022;28;20037;-80
2022/07/31 10:15:16;;;;;;;13.80;12.38;;;19.70;99.90;;;;;;5045990;28;20389;-79
2022/07/31 10:17:48;;;;;;;12.98;11.68;;;19.70;99.90;;;;;;5044972;28;20079;-79
2022/07/31 10:20:21;;;;;;;17.38;12.60;;;19.70;99.90;;;;;;5045545;28;20390;-81
2022/07/31 10:22:55;;;;;;;14.20;12.67;;;19.70;99.90;;;;;;5027463;28;20047;-79
2022/07/31 10:25:26;;;;;;;15.38;12.63;;;19.80;99.90;;;;;;5046911;28;20108;-81
2022/07/31 10:27:53;;;;;;;13.68;12.05;;;20.60;99.90;;;;;;5043977;28;20045;-81
2022/07/31 10:30:19;;;;;;;15.32;11.80;;;19.70;99.90;;;;;;5041689;28;20045;-81
2022/07/31 10:32:45;;;;;;;18.67;12.77;;;19.70;99.90;;;;;;5049086;28;20033;-82
2022/07/31 10:35:12;;;;;;;16.75;13.43;;;19.70;99.90;;;;;;5041544;28;20551;-81
2022/07/31 10:38:25;;;;;;;16.77;12.48;;;19.60;99.90;;;;;;5042199;28;20124;-79
2022/07/31 10:41:08;;;;;;;20.48;16.30;;;19.60;99.90;;;;;;4970446;28;20133;-80
2022/07/31 10:43:57;;;;;;;15.40;11.98;;;19.60;99.90;;;;;;5038212;28;20136;-81
2022/07/31 10:46:27;;;;;;;14.43;12.90;;;19.60;99.90;;;;;;5040382;28;20058;-81
2022/07/31 10:48:55;;;;;;;16.33;12.52;;;19.60;99.90;;;;;;5041829;28;20046;-81
2022/07/31 10:51:22;;;;;;;13.73;12.00;;;19.60;99.90;;;;;;5047641;28;20048;-79
2022/07/31 10:54:01;;;;;;;12.88;11.57;;;19.60;99.90;;;;;;5040118;28;20059;-80
2022/07/31 10:56:28;;;;;;;12.85;11.57;;;19.50;99.90;;;;;;5025863;28;20168;-80
2022/07/31 10:58:56;;;;;;;13.40;11.93;;;19.50;99.90;;;;;;5044104;28;20053;-80
2022/07/31 11:01:25;;;;;;;17.38;12.82;;;19.50;99.90;;;;;;5046760;28;20068;-80
2022/07/31 11:03:59;;;;;;;13.73;12.32;;;19.50;99.90;;;;;;5041447;28;20045;-80
2022/07/31 11:06:25;;;;;;;;;;;19.50;99.90;;;;;;5044332;28;20436;-81
2022/07/31 11:08:53;;;;;;;15.10;13.52;;;19.50;99.90;;;;;;5045385;28;19927;-80
2022/07/31 11:11:31;;;;;;;15.30;13.80;;;19.40;99.90;;;;;;5045111;28;20090;-81
2022/07/31 11:13:59;;;;;;;14.73;13.27;;;19.40;99.90;;;;;;5042844;28;20136;-81
2022/07/31 11:16:25;;;;;;;16.00;14.38;;;19.40;99.90;;;;;;5039676;28;20128;-81
2022/07/31 11:18:58;;;;;;;14.95;13.55;;;19.40;99.90;;;;;;5040179;28;20042;-82
2022/07/31 11:21:39;;;;;;;14.65;13.27;;;19.50;99.90;;;;;;5046118;28;20136;-82
2022/07/31 11:24:12;;;;;;;16.23;14.52;;;19.40;99.90;;;;;;5039804;28;20124;-82
2022/07/31 11:26:50;;;;;;;15.73;14.30;;;19.40;99.90;;;;;;5012481;28;20057;-82
2022/07/31 11:29:26;;;;;;;21.50;15.23;;;19.40;99.90;;;;;;5039255;28;20045;-82
2022/07/31 11:31:52;;;;;;;15.23;13.68;;;20.00;99.90;;;;;;5048696;28;20049;-82
2022/07/31 11:34:18;;;;;;;14.48;12.70;;;19.40;99.90;;;;;;5043787;28;20423;-82
2022/07/31 11:36:44;;;;;;;18.95;14.77;;;19.40;99.90;;;;;;5042226;28;20468;-82
2022/07/31 11:39:11;;;;;;;16.80;14.32;;;19.40;99.90;;;;;;5040611;28;20042;-83
2022/07/31 11:41:37;;;;;;;18.95;13.27;;;19.50;99.90;;;;;;5046213;28;20480;-82
2022/07/31 11:44:03;;;;;;;15.00;12.70;;;19.30;99.90;;;;;;5040845;28;20055;-82
2022/07/31 11:46:32;;;;;;;15.35;13.82;;;19.30;99.90;;;;;;5039984;28;20041;-82
2022/07/31 11:49:00;;;;;;;14.32;12.93;;;19.30;99.90;;;;;;5030381;28;20400;-82
2022/07/31 11:51:27;;;;;;;16.85;13.43;;;19.20;99.90;;;;;;5045705;28;20041;-81
2022/07/31 11:53:56;;;;;;;14.65;13.05;;;19.20;99.90;;;;;;5027855;28;20044;-81
2022/07/31 11:56:24;;;;;;;15.65;13.82;;;19.20;99.90;;;;;;5024919;28;20037;-82
2022/07/31 11:58:56;;;;;;;15.32;13.82;;;19.20;99.90;;;;;;5043161;28;20057;-82
2022/07/31 12:01:28;;;;;;;14.75;13.15;;;19.10;99.90;;;;;;5039411;28;20041;-82
2022/07/31 12:03:55;;;;;;;14.45;12.50;;;19.10;99.90;;;;;;5038837;28;20076;-82
2022/07/31 12:06:21;;;;;;;15.13;13.60;;;19.10;99.90;;;;;;5043010;28;20051;-82
2022/07/31 12:08:48;;;;;;;15.77;14.18;;;19.10;99.90;;;;;;5035426;28;20037;-83
2022/07/31 12:11:16;;;;;;;15.95;14.30;;;19.20;99.90;;;;;;5029002;28;20183;-82
2022/07/31 12:13:46;;;;;;;15.07;13.48;;;19.10;99.90;;;;;;5039762;28;20045;-82
2022/07/31 12:16:12;;;;;;;13.70;12.43;;;19.20;99.90;;;;;;5041497;28;20493;-82
2022/07/31 12:18:49;;;;;;;14.80;12.85;;;19.10;99.90;;;;;;5024199;28;20052;-83
2022/07/31 12:21:16;;;;;;;17.33;15.65;;;19.10;99.90;;;;;;5025197;28;20484;-83
2022/07/31 12:23:48;;;;;;;13.95;12.63;;;19.20;99.90;;;;;;5044486;28;20044;-83
2022/07/31 12:26:29;;;;;;;11.35;10.45;;;19.10;99.90;;;;;;5023403;28;20056;-82
2022/07/31 12:29:10;;;;;;;12.43;10.68;;;19.40;99.90;;;;;;5025074;28;20045;-82
2022/07/31 12:31:50;;;;;;;11.93;10.73;;;19.10;99.90;;;;;;5040111;28;20048;-82
2022/07/31 12:34:26;;;;;;;10.88;9.77;;;19.10;99.90;;;;;;5034103;28;20049;-82
2022/07/31 12:37:12;;;;;;;11.45;10.45;;;19.10;99.90;;;;;;5047144;28;20091;-81
2022/07/31 12:39:58;;;;;;;13.77;12.43;;;19.10;99.90;;;;;;5042802;28;20116;-82
2022/07/31 12:42:33;;;;;;;13.50;12.25;;;19.10;99.90;;;;;;5042751;28;20055;-82
2022/07/31 12:45:00;;;;;;;13.88;12.57;;;19.10;99.90;;;;;;5051405;28;20116;-81
2022/07/31 12:47:35;;;;;;;16.17;14.48;;;19.20;99.90;;;;;;5029106;28;20067;-81